AMX255 MMAA-MMMX
Flight info
| Callsign | AMX255 |
|---|---|
| Flight time | 0h 39m |
| Altitude | 30000 |
| Route | ALNUS1A ALNUS UT117 ESPOS ESPOS3A |
| Aircraft | B738/M-SDE2E3FGHIRWXY/LB1 |
Departure
| Time | 2026-04-21 13:07 |
|---|---|
| Airport | General Juan N. Álvarez International Airport (MMAA) |
Arrival
| Time | 2026-04-21 13:47 |
|---|---|
| Airport | Mexico City Benito Juárez International Airport (MMMX) |
| Time | Latitude | Longitude | Altitude | Speed | Heading |
|---|---|---|---|---|---|
| 2026-04-21 12:52 | 16.76084 | -99.75369 | 17 ft | 0 kts | 21° |
| 2026-04-21 13:01 | 16.76066 | -99.75376 | 18 ft | 4 kts | 22° |
| 2026-04-21 13:01 | 16.76041 | -99.75387 | 16 ft | 4 kts | 25° |
| 2026-04-21 13:01 | 16.76017 | -99.75400 | 16 ft | 4 kts | 34° |
| 2026-04-21 13:02 | 16.75998 | -99.75418 | 16 ft | 4 kts | 71° |
| 2026-04-21 13:02 | 16.75996 | -99.75430 | 16 ft | 1 kts | 108° |
| 2026-04-21 13:03 | 16.75996 | -99.75429 | 16 ft | 1 kts | 109° |
| 2026-04-21 13:04 | 16.75977 | -99.75416 | 16 ft | 6 kts | 159° |
| 2026-04-21 13:04 | 16.75918 | -99.75430 | 17 ft | 11 kts | 216° |
| 2026-04-21 13:04 | 16.75878 | -99.75502 | 19 ft | 12 kts | 246° |
| 2026-04-21 13:04 | 16.75848 | -99.75578 | 19 ft | 12 kts | 246° |
| 2026-04-21 13:05 | 16.75815 | -99.75666 | 21 ft | 15 kts | 259° |
| 2026-04-21 13:05 | 16.75836 | -99.75780 | 19 ft | 17 kts | 289° |
| 2026-04-21 13:05 | 16.75876 | -99.75906 | 21 ft | 20 kts | 288° |
| 2026-04-21 13:05 | 16.75924 | -99.76062 | 20 ft | 24 kts | 288° |
| 2026-04-21 13:06 | 16.75985 | -99.76196 | 17 ft | 13 kts | 321° |
| 2026-04-21 13:06 | 16.76036 | -99.76240 | 17 ft | 7 kts | 292° |
| 2026-04-21 13:06 | 16.76015 | -99.76279 | 18 ft | 7 kts | 194° |
| 2026-04-21 13:06 | 16.75982 | -99.76245 | 17 ft | 8 kts | 113° |
| 2026-04-21 13:07 | 16.75956 | -99.76167 | 17 ft | 16 kts | 107° |
| 2026-04-21 13:07 | 16.75855 | -99.75841 | 19 ft | 89 kts | 108° |
| 2026-04-21 13:07 | 16.75579 | -99.74958 | 19 ft | 164 kts | 107° |
| 2026-04-21 13:07 | 16.75202 | -99.73746 | 641 ft | 184 kts | 108° |
| 2026-04-21 13:08 | 16.74791 | -99.72489 | 1789 ft | 183 kts | 107° |
| 2026-04-21 13:08 | 16.74406 | -99.71223 | 2739 ft | 185 kts | 106° |
| 2026-04-21 13:08 | 16.74000 | -99.69856 | 3182 ft | 212 kts | 107° |
| 2026-04-21 13:08 | 16.73508 | -99.68302 | 3403 ft | 238 kts | 108° |
| 2026-04-21 13:09 | 16.72969 | -99.66609 | 3860 ft | 253 kts | 108° |
| 2026-04-21 13:09 | 16.72398 | -99.64789 | 4231 ft | 272 kts | 104° |
| 2026-04-21 13:09 | 16.72393 | -99.62818 | 5060 ft | 276 kts | 72° |
| 2026-04-21 13:09 | 16.73356 | -99.61108 | 5991 ft | 277 kts | 44° |
| 2026-04-21 13:10 | 16.74953 | -99.60040 | 6786 ft | 282 kts | 18° |
| 2026-04-21 13:10 | 16.76900 | -99.59822 | 7594 ft | 285 kts | 353° |
| 2026-04-21 13:10 | 16.78823 | -99.60365 | 8401 ft | 289 kts | 339° |
| 2026-04-21 13:10 | 16.80682 | -99.61189 | 9202 ft | 292 kts | 335° |
| 2026-04-21 13:11 | 16.82545 | -99.62082 | 9959 ft | 297 kts | 335° |
| 2026-04-21 13:11 | 16.84454 | -99.62998 | 10474 ft | 312 kts | 336° |
| 2026-04-21 13:11 | 16.86513 | -99.63969 | 10659 ft | 336 kts | 336° |
| 2026-04-21 13:11 | 16.88685 | -99.64977 | 10947 ft | 354 kts | 336° |
| 2026-04-21 13:12 | 16.90960 | -99.66020 | 11581 ft | 359 kts | 337° |
| 2026-04-21 13:12 | 16.93248 | -99.67062 | 12408 ft | 358 kts | 337° |
| 2026-04-21 13:12 | 16.95536 | -99.68101 | 13135 ft | 361 kts | 337° |
| 2026-04-21 13:12 | 16.97863 | -99.69155 | 13696 ft | 368 kts | 337° |
| 2026-04-21 13:13 | 17.00228 | -99.70226 | 14322 ft | 372 kts | 337° |
| 2026-04-21 13:13 | 17.02617 | -99.71309 | 14948 ft | 376 kts | 337° |
| 2026-04-21 13:13 | 17.05026 | -99.72401 | 15545 ft | 380 kts | 337° |
| 2026-04-21 13:13 | 17.07525 | -99.73359 | 16115 ft | 385 kts | 346° |
| 2026-04-21 13:14 | 17.10148 | -99.73974 | 16683 ft | 388 kts | 349° |
| 2026-04-21 13:14 | 17.12814 | -99.74499 | 17234 ft | 392 kts | 350° |
| 2026-04-21 13:14 | 17.15499 | -99.75053 | 17776 ft | 396 kts | 349° |
| 2026-04-21 13:14 | 17.18207 | -99.75658 | 18304 ft | 400 kts | 348° |
| 2026-04-21 13:15 | 17.20938 | -99.76283 | 18837 ft | 403 kts | 349° |
| 2026-04-21 13:15 | 17.23725 | -99.76646 | 19354 ft | 405 kts | 357° |
| 2026-04-21 13:15 | 17.26551 | -99.76724 | 19889 ft | 408 kts | 0° |
| 2026-04-21 13:15 | 17.29359 | -99.76713 | 20370 ft | 410 kts | 0° |
| 2026-04-21 13:16 | 17.32224 | -99.76697 | 20833 ft | 413 kts | 0° |
| 2026-04-21 13:16 | 17.35104 | -99.76704 | 21282 ft | 416 kts | 359° |
| 2026-04-21 13:16 | 17.38004 | -99.76737 | 21764 ft | 418 kts | 359° |
| 2026-04-21 13:16 | 17.40918 | -99.76790 | 22203 ft | 420 kts | 358° |
| 2026-04-21 13:17 | 17.43852 | -99.76854 | 22614 ft | 423 kts | 358° |
| 2026-04-21 13:17 | 17.46805 | -99.76919 | 22999 ft | 426 kts | 358° |
| 2026-04-21 13:17 | 17.49775 | -99.76984 | 23403 ft | 428 kts | 358° |
| 2026-04-21 13:17 | 17.52764 | -99.77051 | 23812 ft | 430 kts | 358° |
| 2026-04-21 13:18 | 17.55764 | -99.77120 | 24191 ft | 432 kts | 358° |
| 2026-04-21 13:18 | 17.58777 | -99.77185 | 24558 ft | 434 kts | 358° |
| 2026-04-21 13:18 | 17.61810 | -99.77250 | 24889 ft | 437 kts | 358° |
| 2026-04-21 13:18 | 17.64862 | -99.77314 | 25219 ft | 440 kts | 358° |
| 2026-04-21 13:19 | 17.67927 | -99.77380 | 25587 ft | 441 kts | 358° |
| 2026-04-21 13:19 | 17.71005 | -99.77447 | 25919 ft | 444 kts | 358° |
| 2026-04-21 13:19 | 17.74099 | -99.77513 | 26232 ft | 446 kts | 358° |
| 2026-04-21 13:19 | 17.77207 | -99.77580 | 26555 ft | 448 kts | 358° |
| 2026-04-21 13:20 | 17.80328 | -99.77673 | 26880 ft | 450 kts | 356° |
| 2026-04-21 13:20 | 17.83459 | -99.77824 | 27198 ft | 451 kts | 356° |
| 2026-04-21 13:20 | 17.86603 | -99.78003 | 27512 ft | 453 kts | 355° |
| 2026-04-21 13:20 | 17.89757 | -99.78189 | 27851 ft | 454 kts | 355° |
| 2026-04-21 13:21 | 17.92912 | -99.78374 | 28261 ft | 454 kts | 355° |
| 2026-04-21 13:21 | 17.96053 | -99.78552 | 28726 ft | 451 kts | 355° |
| 2026-04-21 13:21 | 17.99183 | -99.78725 | 29169 ft | 450 kts | 355° |
| 2026-04-21 13:21 | 18.02266 | -99.78892 | 29556 ft | 449 kts | 355° |
| 2026-04-21 13:22 | 18.05388 | -99.79060 | 29935 ft | 449 kts | 355° |
| 2026-04-21 13:22 | 18.08512 | -99.79227 | 30166 ft | 451 kts | 355° |
| 2026-04-21 13:22 | 18.14804 | -99.79565 | 30154 ft | 452 kts | 355° |
| 2026-04-21 13:23 | 18.21035 | -99.79896 | 30167 ft | 447 kts | 355° |
| 2026-04-21 13:23 | 18.27257 | -99.80231 | 30183 ft | 448 kts | 355° |
| 2026-04-21 13:24 | 18.33495 | -99.80562 | 30195 ft | 449 kts | 355° |
| 2026-04-21 13:24 | 18.39742 | -99.80899 | 30202 ft | 450 kts | 355° |
| 2026-04-21 13:25 | 18.45928 | -99.81231 | 30197 ft | 436 kts | 355° |
| 2026-04-21 13:25 | 18.51918 | -99.81557 | 29398 ft | 433 kts | 355° |
| 2026-04-21 13:26 | 18.54905 | -99.81719 | 28889 ft | 430 kts | 355° |
| 2026-04-21 13:26 | 18.57882 | -99.81880 | 28450 ft | 426 kts | 355° |
| 2026-04-21 13:26 | 18.60828 | -99.82038 | 27978 ft | 423 kts | 355° |
| 2026-04-21 13:26 | 18.63759 | -99.82195 | 27524 ft | 420 kts | 355° |
| 2026-04-21 13:27 | 18.66667 | -99.82351 | 27074 ft | 417 kts | 356° |
| 2026-04-21 13:27 | 18.69548 | -99.82123 | 26590 ft | 418 kts | 14° |
| 2026-04-21 13:27 | 18.72183 | -99.80889 | 26184 ft | 416 kts | 33° |
| 2026-04-21 13:27 | 18.74366 | -99.78895 | 25789 ft | 414 kts | 48° |
| 2026-04-21 13:28 | 18.75922 | -99.76355 | 25386 ft | 412 kts | 64° |
| 2026-04-21 13:28 | 18.77103 | -99.73617 | 25006 ft | 409 kts | 65° |
| 2026-04-21 13:28 | 18.78229 | -99.70874 | 24610 ft | 406 kts | 66° |
| 2026-04-21 13:28 | 18.79343 | -99.68144 | 24217 ft | 403 kts | 66° |
| 2026-04-21 13:29 | 18.80455 | -99.65442 | 23830 ft | 400 kts | 66° |
| 2026-04-21 13:29 | 18.81573 | -99.62760 | 23452 ft | 398 kts | 65° |
| 2026-04-21 13:29 | 18.82691 | -99.60099 | 23065 ft | 395 kts | 65° |
| 2026-04-21 13:29 | 18.83805 | -99.57458 | 22684 ft | 393 kts | 65° |
| 2026-04-21 13:30 | 18.84915 | -99.54834 | 22304 ft | 390 kts | 65° |
| 2026-04-21 13:30 | 18.86017 | -99.52228 | 21934 ft | 387 kts | 65° |
| 2026-04-21 13:30 | 18.87108 | -99.49648 | 21573 ft | 384 kts | 65° |
| 2026-04-21 13:30 | 18.88191 | -99.47083 | 21213 ft | 381 kts | 65° |
| 2026-04-21 13:31 | 18.89268 | -99.44534 | 20850 ft | 379 kts | 65° |
| 2026-04-21 13:31 | 18.90337 | -99.42000 | 20487 ft | 376 kts | 65° |
| 2026-04-21 13:31 | 18.91399 | -99.39483 | 20111 ft | 374 kts | 65° |
| 2026-04-21 13:31 | 18.92438 | -99.37019 | 19745 ft | 371 kts | 65° |
| 2026-04-21 13:32 | 18.93482 | -99.34543 | 19387 ft | 367 kts | 65° |
| 2026-04-21 13:32 | 18.94532 | -99.32057 | 19018 ft | 364 kts | 65° |
| 2026-04-21 13:32 | 18.95535 | -99.29616 | 18657 ft | 361 kts | 70° |
| 2026-04-21 13:32 | 18.95908 | -99.27054 | 18327 ft | 358 kts | 94° |
| 2026-04-21 13:33 | 18.95447 | -99.24709 | 18297 ft | 346 kts | 110° |
| 2026-04-21 13:33 | 18.94318 | -99.22527 | 18275 ft | 333 kts | 126° |
| 2026-04-21 13:33 | 18.92969 | -99.20612 | 18288 ft | 320 kts | 127° |
| 2026-04-21 13:33 | 18.91652 | -99.18773 | 18286 ft | 309 kts | 127° |
| 2026-04-21 13:34 | 18.90379 | -99.16969 | 18288 ft | 305 kts | 126° |
| 2026-04-21 13:34 | 18.89121 | -99.15156 | 18305 ft | 307 kts | 123° |
| 2026-04-21 13:34 | 18.88274 | -99.13088 | 18183 ft | 312 kts | 102° |
| 2026-04-21 13:34 | 18.87887 | -99.10811 | 17888 ft | 314 kts | 99° |
| 2026-04-21 13:35 | 18.87529 | -99.08559 | 17855 ft | 309 kts | 99° |
| 2026-04-21 13:35 | 18.87159 | -99.06337 | 17847 ft | 307 kts | 99° |
| 2026-04-21 13:35 | 18.87142 | -99.04101 | 17828 ft | 306 kts | 75° |
| 2026-04-21 13:35 | 18.88059 | -99.02089 | 17849 ft | 308 kts | 50° |
| 2026-04-21 13:36 | 18.89692 | -99.00630 | 17578 ft | 312 kts | 25° |
| 2026-04-21 13:36 | 18.91764 | -99.00002 | 17308 ft | 311 kts | 3° |
| 2026-04-21 13:36 | 18.93922 | -98.99998 | 17032 ft | 309 kts | 357° |
| 2026-04-21 13:36 | 18.96063 | -99.00114 | 16745 ft | 305 kts | 356° |
| 2026-04-21 13:37 | 18.98163 | -99.00244 | 16444 ft | 299 kts | 356° |
| 2026-04-21 13:37 | 19.00218 | -99.00365 | 16168 ft | 293 kts | 356° |
| 2026-04-21 13:37 | 19.02238 | -99.00473 | 15906 ft | 289 kts | 356° |
| 2026-04-21 13:37 | 19.04242 | -99.00574 | 15659 ft | 289 kts | 357° |
| 2026-04-21 13:38 | 19.06259 | -99.00670 | 15410 ft | 292 kts | 357° |
| 2026-04-21 13:38 | 19.08295 | -99.00764 | 15133 ft | 294 kts | 357° |
| 2026-04-21 13:38 | 19.10342 | -99.00857 | 14860 ft | 295 kts | 357° |
| 2026-04-21 13:38 | 19.12387 | -99.00946 | 14596 ft | 294 kts | 358° |
| 2026-04-21 13:39 | 19.14416 | -99.01030 | 14328 ft | 291 kts | 356° |
| 2026-04-21 13:39 | 19.16432 | -99.01141 | 14070 ft | 290 kts | 352° |
| 2026-04-21 13:39 | 19.18326 | -99.01831 | 13760 ft | 290 kts | 327° |
| 2026-04-21 13:39 | 19.19898 | -99.03148 | 13443 ft | 286 kts | 317° |
| 2026-04-21 13:40 | 19.21320 | -99.04594 | 13123 ft | 281 kts | 315° |
| 2026-04-21 13:40 | 19.22689 | -99.06000 | 13002 ft | 265 kts | 316° |
| 2026-04-21 13:40 | 19.23969 | -99.07299 | 12899 ft | 246 kts | 316° |
| 2026-04-21 13:40 | 19.24726 | -99.08155 | 12813 ft | 235 kts | 309° |
| 2026-04-21 13:41 | 19.25689 | -99.09491 | 12644 ft | 224 kts | 306° |
| 2026-04-21 13:41 | 19.26618 | -99.10827 | 12252 ft | 225 kts | 307° |
| 2026-04-21 13:41 | 19.27848 | -99.12571 | 11789 ft | 222 kts | 307° |
| 2026-04-21 13:41 | 19.28779 | -99.13874 | 11381 ft | 221 kts | 307° |
| 2026-04-21 13:42 | 19.29400 | -99.14738 | 11181 ft | 217 kts | 307° |
| 2026-04-21 13:42 | 19.30592 | -99.16393 | 10770 ft | 211 kts | 307° |
| 2026-04-21 13:42 | 19.31189 | -99.17221 | 10562 ft | 207 kts | 307° |
| 2026-04-21 13:42 | 19.32080 | -99.18387 | 10293 ft | 201 kts | 314° |
| 2026-04-21 13:43 | 19.33229 | -99.19176 | 10025 ft | 197 kts | 342° |
| 2026-04-21 13:43 | 19.34582 | -99.19380 | 9796 ft | 199 kts | 2° |
| 2026-04-21 13:43 | 19.35936 | -99.19087 | 9545 ft | 200 kts | 22° |
| 2026-04-21 13:43 | 19.37067 | -99.18275 | 9268 ft | 195 kts | 51° |
| 2026-04-21 13:44 | 19.37834 | -99.17180 | 9080 ft | 180 kts | 55° |
| 2026-04-21 13:44 | 19.38515 | -99.16068 | 8980 ft | 183 kts | 58° |
| 2026-04-21 13:44 | 19.39163 | -99.14917 | 8761 ft | 181 kts | 59° |
| 2026-04-21 13:44 | 19.39801 | -99.13772 | 8529 ft | 180 kts | 60° |
| 2026-04-21 13:45 | 19.40386 | -99.12647 | 8348 ft | 170 kts | 60° |
| 2026-04-21 13:45 | 19.40985 | -99.11593 | 8175 ft | 161 kts | 57° |
| 2026-04-21 13:45 | 19.41559 | -99.10601 | 7936 ft | 155 kts | 59° |
| 2026-04-21 13:45 | 19.42102 | -99.09636 | 7679 ft | 150 kts | 59° |
| 2026-04-21 13:46 | 19.42636 | -99.08684 | 7445 ft | 149 kts | 58° |
| 2026-04-21 13:46 | 19.43166 | -99.07756 | 7311 ft | 146 kts | 59° |
| 2026-04-21 13:46 | 19.43627 | -99.06933 | 7301 ft | 109 kts | 59° |
| 2026-04-21 13:46 | 19.43938 | -99.06377 | 7301 ft | 64 kts | 59° |
| 2026-04-21 13:47 | 19.44096 | -99.06100 | 7300 ft | 34 kts | 59° |
| 2026-04-21 13:47 | 19.44197 | -99.05913 | 7300 ft | 20 kts | 60° |
| 2026-04-21 13:47 | 19.44207 | -99.05854 | 7300 ft | 7 kts | 120° |
| 2026-04-21 13:47 | 19.44173 | -99.05835 | 7302 ft | 6 kts | 172° |
| 2026-04-21 13:48 | 19.44098 | -99.05837 | 7302 ft | 15 kts | 188° |
| 2026-04-21 13:48 | 19.44003 | -99.05920 | 7302 ft | 20 kts | 240° |
| 2026-04-21 13:48 | 19.43934 | -99.06044 | 7302 ft | 19 kts | 239° |
| 2026-04-21 13:48 | 19.43849 | -99.06196 | 7302 ft | 28 kts | 239° |
| 2026-04-21 13:49 | 19.43737 | -99.06396 | 7302 ft | 33 kts | 239° |
| 2026-04-21 13:49 | 19.43626 | -99.06595 | 7302 ft | 30 kts | 239° |
| 2026-04-21 13:49 | 19.43480 | -99.06735 | 7302 ft | 28 kts | 208° |
| 2026-04-21 13:49 | 19.43380 | -99.06903 | 7302 ft | 27 kts | 239° |
| 2026-04-21 13:50 | 19.43287 | -99.07065 | 7302 ft | 25 kts | 239° |
| 2026-04-21 13:50 | 19.43254 | -99.07237 | 7302 ft | 23 kts | 256° |
| 2026-04-21 13:50 | 19.43178 | -99.07383 | 7302 ft | 22 kts | 238° |
| 2026-04-21 13:50 | 19.43090 | -99.07536 | 7302 ft | 28 kts | 239° |
| 2026-04-21 13:51 | 19.42990 | -99.07711 | 7302 ft | 27 kts | 238° |
| 2026-04-21 13:51 | 19.42857 | -99.07839 | 7302 ft | 25 kts | 209° |
| 2026-04-21 13:51 | 19.42731 | -99.07867 | 7302 ft | 17 kts | 155° |
| 2026-04-21 13:51 | 19.42628 | -99.07805 | 7302 ft | 17 kts | 161° |
| 2026-04-21 13:52 | 19.42549 | -99.07815 | 7302 ft | 11 kts | 206° |
| 2026-04-21 13:52 | 19.42493 | -99.07845 | 7302 ft | 1 kts | 206° |